sensor_id;sensor_type;location;lat;lon;timestamp;pressure;altitude;pressure_sealevel;temperature;humidity
21096;BME280;10706;49.036;12.112;2023-02-28T00:00:33;98491.66;;;-2.88;81.89
21096;BME280;10706;49.036;12.112;2023-02-28T00:02:59;98495.09;;;-2.88;81.20
21096;BME280;10706;49.036;12.112;2023-02-28T00:05:27;98487.47;;;-3.01;82.52
21096;BME280;10706;49.036;12.112;2023-02-28T00:07:53;98487.75;;;-3.04;81.47
21096;BME280;10706;49.036;12.112;2023-02-28T00:10:23;98480.91;;;-2.95;81.74
21096;BME280;10706;49.036;12.112;2023-02-28T00:12:53;98482.53;;;-3.04;83.08
21096;BME280;10706;49.036;12.112;2023-02-28T00:15:20;98485.63;;;-2.89;82.43
21096;BME280;10706;49.036;12.112;2023-02-28T00:17:46;98477.47;;;-2.96;82.45
21096;BME280;10706;49.036;12.112;2023-02-28T00:20:13;98475.97;;;-2.98;81.82
21096;BME280;10706;49.036;12.112;2023-02-28T00:22:42;98476.47;;;-3.04;81.76
21096;BME280;10706;49.036;12.112;2023-02-28T00:25:10;98477.69;;;-3.08;82.71
21096;BME280;10706;49.036;12.112;2023-02-28T00:27:37;98468.91;;;-3.07;83.60
21096;BME280;10706;49.036;12.112;2023-02-28T00:30:04;98474.63;;;-3.14;83.69
21096;BME280;10706;49.036;12.112;2023-02-28T00:32:31;98472.88;;;-3.13;82.64
21096;BME280;10706;49.036;12.112;2023-02-28T00:34:56;98473.69;;;-3.13;83.67
21096;BME280;10706;49.036;12.112;2023-02-28T00:37:22;98468.59;;;-3.14;84.30
21096;BME280;10706;49.036;12.112;2023-02-28T00:39:48;98470.94;;;-3.11;82.23
21096;BME280;10706;49.036;12.112;2023-02-28T00:42:14;98466.00;;;-3.04;82.27
21096;BME280;10706;49.036;12.112;2023-02-28T00:44:40;98470.38;;;-3.15;84.00
21096;BME280;10706;49.036;12.112;2023-02-28T00:47:06;98462.22;;;-3.21;83.77
21096;BME280;10706;49.036;12.112;2023-02-28T00:49:32;98461.34;;;-3.32;83.62
21096;BME280;10706;49.036;12.112;2023-02-28T00:51:57;98461.84;;;-3.17;82.96
21096;BME280;10706;49.036;12.112;2023-02-28T00:54:24;98462.91;;;-3.19;83.78
21096;BME280;10706;49.036;12.112;2023-02-28T00:56:50;98450.94;;;-3.22;82.98
21096;BME280;10706;49.036;12.112;2023-02-28T00:59:17;98463.75;;;-3.19;83.62
21096;BME280;10706;49.036;12.112;2023-02-28T01:01:45;98456.59;;;-3.26;83.96
21096;BME280;10706;49.036;12.112;2023-02-28T01:04:12;98450.50;;;-3.27;83.90
21096;BME280;10706;49.036;12.112;2023-02-28T01:06:38;98454.91;;;-3.27;83.13
21096;BME280;10706;49.036;12.112;2023-02-28T01:09:06;98450.50;;;-3.27;84.24
21096;BME280;10706;49.036;12.112;2023-02-28T01:11:32;98450.25;;;-3.24;82.75
21096;BME280;10706;49.036;12.112;2023-02-28T01:13:59;98450.13;;;-3.22;83.54
21096;BME280;10706;49.036;12.112;2023-02-28T01:16:24;98447.41;;;-3.21;82.67
21096;BME280;10706;49.036;12.112;2023-02-28T01:18:50;98447.78;;;-3.25;83.87
21096;BME280;10706;49.036;12.112;2023-02-28T01:21:19;98447.53;;;-3.22;84.16
21096;BME280;10706;49.036;12.112;2023-02-28T01:23:46;98452.19;;;-3.26;83.49
21096;BME280;10706;49.036;12.112;2023-02-28T01:26:16;98445.03;;;-3.24;84.03
21096;BME280;10706;49.036;12.112;2023-02-28T01:28:42;98450.25;;;-3.24;84.03
21096;BME280;10706;49.036;12.112;2023-02-28T01:31:09;98443.13;;;-3.22;83.15
21096;BME280;10706;49.036;12.112;2023-02-28T01:33:35;98443.00;;;-3.20;83.72
21096;BME280;10706;49.036;12.112;2023-02-28T01:36:17;98449.25;;;-3.33;83.76
21096;BME280;10706;49.036;12.112;2023-02-28T01:38:43;98448.81;;;-3.38;83.74
21096;BME280;10706;49.036;12.112;2023-02-28T01:41:24;98441.94;;;-3.39;84.91
21096;BME280;10706;49.036;12.112;2023-02-28T01:46:16;98438.88;;;-3.44;84.34
21096;BME280;10706;49.036;12.112;2023-02-28T01:48:53;98439.44;;;-3.40;83.96
21096;BME280;10706;49.036;12.112;2023-02-28T01:51:34;98443.97;;;-3.42;84.76
21096;BME280;10706;49.036;12.112;2023-02-28T01:54:12;98440.66;;;-3.44;85.22
21096;BME280;10706;49.036;12.112;2023-02-28T01:56:51;98441.38;;;-3.42;83.94
21096;BME280;10706;49.036;12.112;2023-02-28T01:59:27;98432.06;;;-3.35;84.21
21096;BME280;10706;49.036;12.112;2023-02-28T02:01:55;98436.97;;;-3.42;85.14
21096;BME280;10706;49.036;12.112;2023-02-28T02:04:23;98421.69;;;-3.46;85.07
21096;BME280;10706;49.036;12.112;2023-02-28T02:06:52;98422.66;;;-3.47;84.55
21096;BME280;10706;49.036;12.112;2023-02-28T02:09:18;98425.06;;;-3.35;84.97
21096;BME280;10706;49.036;12.112;2023-02-28T02:11:45;98419.91;;;-3.46;85.19
21096;BME280;10706;49.036;12.112;2023-02-28T02:14:30;98421.69;;;-3.46;84.05
21096;BME280;10706;49.036;12.112;2023-02-28T02:17:27;98415.72;;;-3.37;84.08
21096;BME280;10706;49.036;12.112;2023-02-28T02:20:22;98423.00;;;-3.31;84.95
21096;BME280;10706;49.036;12.112;2023-02-28T02:26:20;98423.28;;;-3.55;85.39
21096;BME280;10706;49.036;12.112;2023-02-28T02:29:23;98421.28;;;-3.42;84.57
21096;BME280;10706;49.036;12.112;2023-02-28T02:37:57;98420.31;;;-3.50;83.85
21096;BME280;10706;49.036;12.112;2023-02-28T02:40:59;98417.66;;;-3.60;84.93
21096;BME280;10706;49.036;12.112;2023-02-28T02:43:36;98422.28;;;-3.64;85.33
21096;BME280;10706;49.036;12.112;2023-02-28T02:46:17;98418.13;;;-3.45;84.05
21096;BME280;10706;49.036;12.112;2023-02-28T02:48:45;98422.47;;;-3.56;85.05
21096;BME280;10706;49.036;12.112;2023-02-28T02:51:16;98421.81;;;-3.48;84.01
21096;BME280;10706;49.036;12.112;2023-02-28T02:54:11;98425.94;;;-3.45;84.73
21096;BME280;10706;49.036;12.112;2023-02-28T02:56:43;98419.91;;;-3.46;85.24
21096;BME280;10706;49.036;12.112;2023-02-28T02:59:13;98433.25;;;-3.49;84.63
21096;BME280;10706;49.036;12.112;2023-02-28T03:01:52;98425.53;;;-3.50;85.36
21096;BME280;10706;49.036;12.112;2023-02-28T03:04:21;98427.88;;;-3.47;84.91
21096;BME280;10706;49.036;12.112;2023-02-28T03:06:49;98433.84;;;-3.57;85.34
21096;BME280;10706;49.036;12.112;2023-02-28T03:09:15;98427.94;;;-3.59;85.72
21096;BME280;10706;49.036;12.112;2023-02-28T03:11:41;98421.66;;;-3.56;85.59
21096;BME280;10706;49.036;12.112;2023-02-28T03:17:37;98421.94;;;-3.49;84.38
21096;BME280;10706;49.036;12.112;2023-02-28T03:20:46;98428.31;;;-3.42;84.65
21096;BME280;10706;49.036;12.112;2023-02-28T03:23:28;98432.84;;;-3.44;84.80
21096;BME280;10706;49.036;12.112;2023-02-28T03:26:06;98429.22;;;-3.53;85.42
21096;BME280;10706;49.036;12.112;2023-02-28T03:29:03;98415.97;;;-3.61;85.93
21096;BME280;10706;49.036;12.112;2023-02-28T03:31:39;98420.19;;;-3.49;85.87
21096;BME280;10706;49.036;12.112;2023-02-28T03:34:30;98423.88;;;-3.52;84.37
21096;BME280;10706;49.036;12.112;2023-02-28T03:37:10;98424.91;;;-3.64;85.87
21096;BME280;10706;49.036;12.112;2023-02-28T03:39:45;98425.31;;;-3.59;85.30
21096;BME280;10706;49.036;12.112;2023-02-28T03:42:20;98425.91;;;-3.55;84.65
21096;BME280;10706;49.036;12.112;2023-02-28T03:44:58;98431.16;;;-3.45;85.16
21096;BME280;10706;49.036;12.112;2023-02-28T03:47:32;98432.44;;;-3.40;85.98
21096;BME280;10706;49.036;12.112;2023-02-28T03:52:50;98424.06;;;-3.43;85.18
21096;BME280;10706;49.036;12.112;2023-02-28T03:55:19;98427.63;;;-3.44;85.16
21096;BME280;10706;49.036;12.112;2023-02-28T03:58:01;98429.28;;;-3.43;85.33
21096;BME280;10706;49.036;12.112;2023-02-28T04:00:37;98430.47;;;-3.47;84.22
21096;BME280;10706;49.036;12.112;2023-02-28T04:03:05;98428.38;;;-3.54;85.23
21096;BME280;10706;49.036;12.112;2023-02-28T04:05:31;98421.81;;;-3.48;85.76
21096;BME280;10706;49.036;12.112;2023-02-28T04:08:08;98427.88;;;-3.47;85.91
21096;BME280;10706;49.036;12.112;2023-02-28T04:10:34;98436.47;;;-3.57;85.19
21096;BME280;10706;49.036;12.112;2023-02-28T04:12:59;98441.31;;;-3.52;85.95
21096;BME280;10706;49.036;12.112;2023-02-28T04:15:25;98428.84;;;-3.48;85.48
21096;BME280;10706;49.036;12.112;2023-02-28T04:17:53;98430.09;;;-3.43;85.98
21096;BME280;10706;49.036;12.112;2023-02-28T04:20:18;98435.19;;;-3.41;85.59
21096;BME280;10706;49.036;12.112;2023-02-28T04:22:44;98430.63;;;-3.49;85.42
21096;BME280;10706;49.036;12.112;2023-02-28T04:25:10;98438.31;;;-3.47;85.96
21096;BME280;10706;49.036;12.112;2023-02-28T04:27:35;98436.31;;;-3.34;84.64
21096;BME280;10706;49.036;12.112;2023-02-28T04:30:02;98430.47;;;-3.47;85.70
21096;BME280;10706;49.036;12.112;2023-02-28T04:32:27;98436.03;;;-3.41;84.11
21096;BME280;10706;49.036;12.112;2023-02-28T04:34:53;98431.75;;;-3.42;84.70
21096;BME280;10706;49.036;12.112;2023-02-28T04:37:19;98434.50;;;-3.43;85.74
21096;BME280;10706;49.036;12.112;2023-02-28T04:39:45;98435.63;;;-3.36;85.45
21096;BME280;10706;49.036;12.112;2023-02-28T04:42:12;98437.53;;;-3.38;85.87
21096;BME280;10706;49.036;12.112;2023-02-28T04:44:37;98432.59;;;-3.41;85.33
21096;BME280;10706;49.036;12.112;2023-02-28T04:47:03;98432.72;;;-3.43;85.36
21096;BME280;10706;49.036;12.112;2023-02-28T04:49:29;98431.63;;;-3.40;85.72
21096;BME280;10706;49.036;12.112;2023-02-28T04:51:55;98430.09;;;-3.43;84.95
21096;BME280;10706;49.036;12.112;2023-02-28T04:54:21;98428.06;;;-3.39;84.47
21096;BME280;10706;49.036;12.112;2023-02-28T04:56:47;98431.50;;;-3.39;85.87
21096;BME280;10706;49.036;12.112;2023-02-28T04:59:15;98435.03;;;-3.40;85.16
21096;BME280;10706;49.036;12.112;2023-02-28T05:01:40;98435.44;;;-3.44;84.66
21096;BME280;10706;49.036;12.112;2023-02-28T05:04:10;98437.97;;;-3.33;84.47
21096;BME280;10706;49.036;12.112;2023-02-28T05:06:36;98442.75;;;-3.38;84.22
21096;BME280;10706;49.036;12.112;2023-02-28T05:09:01;98440.06;;;-3.27;83.82
21096;BME280;10706;49.036;12.112;2023-02-28T05:11:33;98436.47;;;-3.36;84.60
21096;BME280;10706;49.036;12.112;2023-02-28T05:14:06;98437.28;;;-3.35;83.83
21096;BME280;10706;49.036;12.112;2023-02-28T05:16:32;98441.88;;;-3.48;84.75
21096;BME280;10706;49.036;12.112;2023-02-28T05:18:59;98435.31;;;-3.43;83.97
21096;BME280;10706;49.036;12.112;2023-02-28T05:21:31;98432.31;;;-3.38;83.63
21096;BME280;10706;49.036;12.112;2023-02-28T05:24:08;98424.47;;;-3.38;85.24
21096;BME280;10706;49.036;12.112;2023-02-28T05:26:37;98430.69;;;-3.39;84.86
21096;BME280;10706;49.036;12.112;2023-02-28T05:29:03;98433.28;;;-3.39;83.90
21096;BME280;10706;49.036;12.112;2023-02-28T05:31:29;98443.31;;;-3.35;83.03
21096;BME280;10706;49.036;12.112;2023-02-28T05:33:54;98440.59;;;-3.33;84.43
21096;BME280;10706;49.036;12.112;2023-02-28T05:36:21;98438.63;;;-3.41;84.42
21096;BME280;10706;49.036;12.112;2023-02-28T05:38:48;98448.75;;;-3.47;83.93
21096;BME280;10706;49.036;12.112;2023-02-28T05:41:14;98447.94;;;-3.48;84.14
21096;BME280;10706;49.036;12.112;2023-02-28T05:43:41;98446.06;;;-3.36;82.67
21096;BME280;10706;49.036;12.112;2023-02-28T05:46:09;98444.09;;;-3.44;82.69
21096;BME280;10706;49.036;12.112;2023-02-28T05:48:37;98444.59;;;-3.29;81.86
21096;BME280;10706;49.036;12.112;2023-02-28T05:51:04;98444.41;;;-3.37;82.61
21096;BME280;10706;49.036;12.112;2023-02-28T05:53:31;98443.97;;;-3.42;81.79
21096;BME280;10706;49.036;12.112;2023-02-28T05:55:57;98445.81;;;-3.33;82.04
21096;BME280;10706;49.036;12.112;2023-02-28T05:58:23;98440.22;;;-3.28;81.44
21096;BME280;10706;49.036;12.112;2023-02-28T06:00:51;98450.66;;;-3.28;81.40
21096;BME280;10706;49.036;12.112;2023-02-28T06:03:17;98453.41;;;-3.30;81.84
21096;BME280;10706;49.036;12.112;2023-02-28T06:05:42;98453.41;;;-3.30;81.30
21096;BME280;10706;49.036;12.112;2023-02-28T06:08:08;98450.94;;;-3.22;80.77
21096;BME280;10706;49.036;12.112;2023-02-28T06:10:35;98454.91;;;-3.27;80.52
21096;BME280;10706;49.036;12.112;2023-02-28T06:13:02;98461.03;;;-3.17;79.26
21096;BME280;10706;49.036;12.112;2023-02-28T06:15:28;98460.38;;;-3.09;79.16
21096;BME280;10706;49.036;12.112;2023-02-28T06:17:55;98463.56;;;-3.06;78.43
21096;BME280;10706;49.036;12.112;2023-02-28T06:20:25;98460.78;;;-3.04;78.53
21096;BME280;10706;49.036;12.112;2023-02-28T06:22:56;98464.38;;;-3.05;78.36
21096;BME280;10706;49.036;12.112;2023-02-28T06:25:24;98459.72;;;-3.02;78.13
21096;BME280;10706;49.036;12.112;2023-02-28T06:27:50;98475.56;;;-2.94;77.86
21096;BME280;10706;49.036;12.112;2023-02-28T06:30:16;98462.94;;;-2.88;77.02
21096;BME280;10706;49.036;12.112;2023-02-28T06:32:42;98474.34;;;-2.80;75.52
21096;BME280;10706;49.036;12.112;2023-02-28T06:35:08;98474.09;;;-2.77;75.47
21096;BME280;10706;49.036;12.112;2023-02-28T06:37:34;98475.63;;;-2.74;75.81
21096;BME280;10706;49.036;12.112;2023-02-28T06:40:00;98477.16;;;-2.71;75.63
21096;BME280;10706;49.036;12.112;2023-02-28T06:42:26;98485.84;;;-2.61;75.51
21096;BME280;10706;49.036;12.112;2023-02-28T06:44:55;98486.72;;;-2.51;74.87
21096;BME280;10706;49.036;12.112;2023-02-28T06:47:21;98486.03;;;-2.53;74.18
21096;BME280;10706;49.036;12.112;2023-02-28T06:49:48;98489.31;;;-2.51;73.48
21096;BME280;10706;49.036;12.112;2023-02-28T06:52:14;98487.66;;;-2.52;73.71
21096;BME280;10706;49.036;12.112;2023-02-28T06:54:40;98488.78;;;-2.45;72.24
21096;BME280;10706;49.036;12.112;2023-02-28T06:57:06;98493.09;;;-2.34;72.51
21096;BME280;10706;49.036;12.112;2023-02-28T06:59:32;98495.41;;;-2.31;72.20
21096;BME280;10706;49.036;12.112;2023-02-28T07:01:58;98497.66;;;-2.17;70.28
21096;BME280;10706;49.036;12.112;2023-02-28T07:04:24;98491.16;;;-2.22;71.40
21096;BME280;10706;49.036;12.112;2023-02-28T07:06:50;98489.94;;;-2.18;71.62
21096;BME280;10706;49.036;12.112;2023-02-28T07:09:16;98495.16;;;-2.08;70.81
21096;BME280;10706;49.036;12.112;2023-02-28T07:11:41;98503.31;;;-2.02;71.28
21096;BME280;10706;49.036;12.112;2023-02-28T07:14:08;98494.66;;;-2.02;69.90
21096;BME280;10706;49.036;12.112;2023-02-28T07:16:35;98497.13;;;-2.01;69.58
21096;BME280;10706;49.036;12.112;2023-02-28T07:19:01;98497.94;;;-2.00;69.51
21096;BME280;10706;49.036;12.112;2023-02-28T07:21:26;98486.81;;;-1.92;69.27
21096;BME280;10706;49.036;12.112;2023-02-28T07:23:52;98499.88;;;-1.92;69.50
21096;BME280;10706;49.036;12.112;2023-02-28T07:26:20;98497.00;;;-1.89;69.83
21096;BME280;10706;49.036;12.112;2023-02-28T07:28:47;98505.94;;;-1.82;70.27
21096;BME280;10706;49.036;12.112;2023-02-28T07:31:14;98504.16;;;-1.72;69.57
21096;BME280;10706;49.036;12.112;2023-02-28T07:33:40;98498.53;;;-1.58;69.75
21096;BME280;10706;49.036;12.112;2023-02-28T07:36:13;98502.66;;;-1.55;69.93
21096;BME280;10706;49.036;12.112;2023-02-28T07:38:42;98497.97;;;-1.51;69.49
21096;BME280;10706;49.036;12.112;2023-02-28T07:41:09;98505.41;;;-1.57;71.48
21096;BME280;10706;49.036;12.112;2023-02-28T07:43:35;98505.00;;;-1.52;70.68
21096;BME280;10706;49.036;12.112;2023-02-28T07:46:11;98507.72;;;-1.44;70.71
21096;BME280;10706;49.036;12.112;2023-02-28T07:48:37;98512.81;;;-1.32;69.62
21096;BME280;10706;49.036;12.112;2023-02-28T07:51:03;98506.88;;;-1.25;69.20
21096;BME280;10706;49.036;12.112;2023-02-28T07:53:30;98523.41;;;-1.14;69.00
21096;BME280;10706;49.036;12.112;2023-02-28T07:56:00;98518.31;;;-1.16;69.07
21096;BME280;10706;49.036;12.112;2023-02-28T07:58:28;98518.84;;;-1.12;69.83
21096;BME280;10706;49.036;12.112;2023-02-28T08:00:54;98520.06;;;-0.97;69.04
21096;BME280;10706;49.036;12.112;2023-02-28T08:03:22;98513.56;;;-0.93;68.62
21096;BME280;10706;49.036;12.112;2023-02-28T08:05:48;98515.19;;;-0.82;68.56
21096;BME280;10706;49.036;12.112;2023-02-28T08:08:16;98513.19;;;-0.70;67.41
21096;BME280;10706;49.036;12.112;2023-02-28T08:10:43;98507.53;;;-0.66;67.74
21096;BME280;10706;49.036;12.112;2023-02-28T08:13:09;98515.69;;;-0.69;68.30
21096;BME280;10706;49.036;12.112;2023-02-28T08:15:35;98509.81;;;-0.53;67.04
21096;BME280;10706;49.036;12.112;2023-02-28T08:18:01;98518.94;;;-0.57;67.00
21096;BME280;10706;49.036;12.112;2023-02-28T08:20:27;98506.50;;;-0.55;66.77
21096;BME280;10706;49.036;12.112;2023-02-28T08:22:53;98514.78;;;-0.50;66.83
21096;BME280;10706;49.036;12.112;2023-02-28T08:25:19;98525.56;;;-0.25;66.51
21096;BME280;10706;49.036;12.112;2023-02-28T08:27:45;98523.91;;;-0.26;66.33
21096;BME280;10706;49.036;12.112;2023-02-28T08:30:12;98511.06;;;-0.29;65.87
21096;BME280;10706;49.036;12.112;2023-02-28T08:32:38;98534.09;;;-0.23;66.09
21096;BME280;10706;49.036;12.112;2023-02-28T08:35:05;98531.94;;;-0.28;65.19
21096;BME280;10706;49.036;12.112;2023-02-28T08:37:31;98526.47;;;-0.16;65.21
21096;BME280;10706;49.036;12.112;2023-02-28T08:39:56;98535.56;;;0.07;64.76
21096;BME280;10706;49.036;12.112;2023-02-28T08:42:23;98531.00;;;0.09;64.49
21096;BME280;10706;49.036;12.112;2023-02-28T08:44:49;98542.41;;;0.18;63.47
21096;BME280;10706;49.036;12.112;2023-02-28T08:47:15;98541.66;;;0.26;63.47
21096;BME280;10706;49.036;12.112;2023-02-28T08:49:40;98540.34;;;0.40;63.96
21096;BME280;10706;49.036;12.112;2023-02-28T08:52:06;98542.34;;;0.46;63.60
21096;BME280;10706;49.036;12.112;2023-02-28T08:54:32;98545.94;;;0.63;62.11
21096;BME280;10706;49.036;12.112;2023-02-28T08:56:59;98545.19;;;0.70;62.56
21096;BME280;10706;49.036;12.112;2023-02-28T08:59:25;98535.00;;;0.49;61.10
21096;BME280;10706;49.036;12.112;2023-02-28T09:01:51;98538.88;;;0.63;62.68
21096;BME280;10706;49.036;12.112;2023-02-28T09:04:17;98532.53;;;0.66;60.82
21096;BME280;10706;49.036;12.112;2023-02-28T09:06:43;98534.53;;;0.54;62.12
21096;BME280;10706;49.036;12.112;2023-02-28T09:09:09;98542.03;;;0.67;62.02
21096;BME280;10706;49.036;12.112;2023-02-28T09:11:35;98539.13;;;0.70;61.52
21096;BME280;10706;49.036;12.112;2023-02-28T09:14:02;98540.22;;;0.67;62.40
21096;BME280;10706;49.036;12.112;2023-02-28T09:16:30;98540.41;;;0.92;61.20
21096;BME280;10706;49.036;12.112;2023-02-28T09:18:57;98533.47;;;1.09;61.56
21096;BME280;10706;49.036;12.112;2023-02-28T09:21:23;98539.09;;;1.14;60.02
21096;BME280;10706;49.036;12.112;2023-02-28T09:23:50;98536.56;;;1.04;60.57
21096;BME280;10706;49.036;12.112;2023-02-28T09:26:20;98529.22;;;1.16;60.50
21096;BME280;10706;49.036;12.112;2023-02-28T09:28:48;98535.16;;;1.18;60.12
21096;BME280;10706;49.036;12.112;2023-02-28T09:31:18;98531.00;;;1.07;58.86
21096;BME280;10706;49.036;12.112;2023-02-28T09:33:54;98538.16;;;0.97;60.56
21096;BME280;10706;49.036;12.112;2023-02-28T09:36:21;98534.59;;;1.06;60.13
21096;BME280;10706;49.036;12.112;2023-02-28T09:38:47;98541.09;;;1.20;59.89
21096;BME280;10706;49.036;12.112;2023-02-28T09:41:45;98537.13;;;1.16;59.77
21096;BME280;10706;49.036;12.112;2023-02-28T09:44:35;98541.69;;;1.40;59.39
21096;BME280;10706;49.036;12.112;2023-02-28T09:47:31;98545.38;;;1.47;57.37
21096;BME280;10706;49.036;12.112;2023-02-28T09:50:28;98545.66;;;1.44;57.89
21096;BME280;10706;49.036;12.112;2023-02-28T09:52:56;98542.16;;;1.62;59.16
21096;BME280;10706;49.036;12.112;2023-02-28T09:55:37;98541.66;;;1.66;57.21
21096;BME280;10706;49.036;12.112;2023-02-28T09:58:05;98546.25;;;1.56;58.63
21096;BME280;10706;49.036;12.112;2023-02-28T10:00:40;98540.63;;;1.59;58.88
21096;BME280;10706;49.036;12.112;2023-02-28T10:03:25;98542.72;;;1.47;57.87
21096;BME280;10706;49.036;12.112;2023-02-28T10:06:23;98545.81;;;1.77;58.88
21096;BME280;10706;49.036;12.112;2023-02-28T10:09:03;98547.28;;;1.71;57.84
21096;BME280;10706;49.036;12.112;2023-02-28T10:11:33;98551.81;;;1.61;58.11
21096;BME280;10706;49.036;12.112;2023-02-28T10:14:21;98548.97;;;1.46;58.35
21096;BME280;10706;49.036;12.112;2023-02-28T10:17:10;98556.00;;;1.38;57.94
21096;BME280;10706;49.036;12.112;2023-02-28T10:20:01;98551.50;;;1.56;57.21
21096;BME280;10706;49.036;12.112;2023-02-28T10:22:53;98556.59;;;1.58;57.96
21096;BME280;10706;49.036;12.112;2023-02-28T10:25:28;98556.16;;;1.70;57.96
21096;BME280;10706;49.036;12.112;2023-02-28T10:28:00;98550.09;;;1.78;57.33
21096;BME280;10706;49.036;12.112;2023-02-28T10:30:27;98549.28;;;1.78;58.10
21096;BME280;10706;49.036;12.112;2023-02-28T10:32:53;98552.94;;;1.93;57.12
21096;BME280;10706;49.036;12.112;2023-02-28T10:35:24;98553.44;;;1.97;57.61
21096;BME280;10706;49.036;12.112;2023-02-28T10:37:58;98552.84;;;2.19;56.69
21096;BME280;10706;49.036;12.112;2023-02-28T10:40:35;98551.47;;;1.90;57.81
21096;BME280;10706;49.036;12.112;2023-02-28T10:43:27;98554.31;;;1.97;57.59
21096;BME280;10706;49.036;12.112;2023-02-28T10:48:45;98556.75;;;1.99;57.16
21096;BME280;10706;49.036;12.112;2023-02-28T10:51:16;98550.72;;;2.14;58.25
21096;BME280;10706;49.036;12.112;2023-02-28T11:03:56;98545.50;;;2.31;56.06
21096;BME280;10706;49.036;12.112;2023-02-28T11:06:30;98537.75;;;2.54;57.71
21096;BME280;10706;49.036;12.112;2023-02-28T11:09:06;98544.19;;;2.60;57.31
21096;BME280;10706;49.036;12.112;2023-02-28T11:11:46;98539.75;;;2.77;56.40
21096;BME280;10706;49.036;12.112;2023-02-28T11:14:22;98543.56;;;2.74;54.54
21096;BME280;10706;49.036;12.112;2023-02-28T11:16:50;98545.03;;;2.68;55.46
21096;BME280;10706;49.036;12.112;2023-02-28T11:19:30;98541.56;;;2.84;56.56
21096;BME280;10706;49.036;12.112;2023-02-28T11:22:02;98545.00;;;3.01;55.38
21096;BME280;10706;49.036;12.112;2023-02-28T11:24:35;98549.44;;;2.92;56.40
21096;BME280;10706;49.036;12.112;2023-02-28T11:27:02;98539.25;;;2.81;54.26
21096;BME280;10706;49.036;12.112;2023-02-28T11:29:31;98544.00;;;2.78;55.40
21096;BME280;10706;49.036;12.112;2023-02-28T11:34:38;98540.38;;;2.87;56.43
21096;BME280;10706;49.036;12.112;2023-02-28T11:37:08;98536.44;;;2.99;54.77
21096;BME280;10706;49.036;12.112;2023-02-28T11:39:36;98529.69;;;2.80;55.45
21096;BME280;10706;49.036;12.112;2023-02-28T11:42:38;98534.78;;;3.06;56.46
21096;BME280;10706;49.036;12.112;2023-02-28T11:57:01;98530.97;;;3.09;53.63
21096;BME280;10706;49.036;12.112;2023-02-28T12:00:19;98528.44;;;3.40;53.35
21096;BME280;10706;49.036;12.112;2023-02-28T12:14:22;98528.16;;;3.27;55.18
21096;BME280;10706;49.036;12.112;2023-02-28T12:20:57;98517.41;;;3.37;53.57
21096;BME280;10706;49.036;12.112;2023-02-28T12:23:45;98524.31;;;3.38;53.62
21096;BME280;10706;49.036;12.112;2023-02-28T12:26:44;98516.13;;;3.64;51.86
21096;BME280;10706;49.036;12.112;2023-02-28T12:29:30;98522.56;;;4.01;51.67
21096;BME280;10706;49.036;12.112;2023-02-28T12:34:49;98509.34;;;4.93;50.81
21096;BME280;10706;49.036;12.112;2023-02-28T12:40:22;98502.34;;;5.30;49.50
21096;BME280;10706;49.036;12.112;2023-02-28T12:43:04;98495.84;;;5.77;46.48
21096;BME280;10706;49.036;12.112;2023-02-28T12:50:57;98500.69;;;5.59;47.69
21096;BME280;10706;49.036;12.112;2023-02-28T12:56:53;98484.13;;;6.23;45.33
21096;BME280;10706;49.036;12.112;2023-02-28T13:02:45;98480.94;;;6.28;44.35
21096;BME280;10706;49.036;12.112;2023-02-28T13:05:49;98473.22;;;6.54;43.79
21096;BME280;10706;49.036;12.112;2023-02-28T13:11:43;98486.31;;;7.89;41.98
21096;BME280;10706;49.036;12.112;2023-02-28T13:19:37;98490.44;;;7.98;41.56
21096;BME280;10706;49.036;12.112;2023-02-28T13:22:04;98489.47;;;7.29;41.93
21096;BME280;10706;49.036;12.112;2023-02-28T13:24:44;98487.72;;;7.85;42.29
21096;BME280;10706;49.036;12.112;2023-02-28T13:27:31;98485.09;;;7.50;41.96
21096;BME280;10706;49.036;12.112;2023-02-28T13:29:57;98481.09;;;8.22;40.73
21096;BME280;10706;49.036;12.112;2023-02-28T13:42:36;98482.06;;;7.53;42.19
21096;BME280;10706;49.036;12.112;2023-02-28T13:47:51;98492.03;;;7.92;41.79
21096;BME280;10706;49.036;12.112;2023-02-28T13:56:07;98487.28;;;8.49;39.80
21096;BME280;10706;49.036;12.112;2023-02-28T13:58:54;98485.06;;;7.85;41.10
21096;BME280;10706;49.036;12.112;2023-02-28T14:07:01;98485.31;;;7.13;42.96
21096;BME280;10706;49.036;12.112;2023-02-28T14:09:40;98489.81;;;7.96;42.19
21096;BME280;10706;49.036;12.112;2023-02-28T14:12:52;98491.59;;;8.50;40.18
21096;BME280;10706;49.036;12.112;2023-02-28T14:15:43;98480.78;;;7.97;40.83
21096;BME280;10706;49.036;12.112;2023-02-28T14:18:35;98484.09;;;7.16;42.01
21096;BME280;10706;49.036;12.112;2023-02-28T14:21:23;98473.66;;;7.14;43.28
21096;BME280;10706;49.036;12.112;2023-02-28T14:24:32;98488.28;;;7.73;42.05
21096;BME280;10706;49.036;12.112;2023-02-28T14:27:23;98481.81;;;7.48;41.92
21096;BME280;10706;49.036;12.112;2023-02-28T14:38:46;98480.56;;;8.93;39.07
21096;BME280;10706;49.036;12.112;2023-02-28T14:41:26;98472.97;;;9.10;39.51
21096;BME280;10706;49.036;12.112;2023-02-28T14:44:00;98484.41;;;9.24;39.66
21096;BME280;10706;49.036;12.112;2023-02-28T14:46:38;98476.78;;;9.41;39.09
21096;BME280;10706;49.036;12.112;2023-02-28T14:49:07;98482.75;;;9.37;38.52
21096;BME280;10706;49.036;12.112;2023-02-28T14:51:38;98488.31;;;8.48;40.32
21096;BME280;10706;49.036;12.112;2023-02-28T14:54:04;98481.31;;;7.72;41.09
21096;BME280;10706;49.036;12.112;2023-02-28T14:56:37;98479.34;;;7.39;41.70
21096;BME280;10706;49.036;12.112;2023-02-28T14:59:05;98476.28;;;7.43;42.09
21096;BME280;10706;49.036;12.112;2023-02-28T15:01:31;98479.84;;;6.65;44.17
21096;BME280;10706;49.036;12.112;2023-02-28T15:04:05;98484.88;;;6.81;43.59
21096;BME280;10706;49.036;12.112;2023-02-28T15:06:33;98479.16;;;6.35;44.85
21096;BME280;10706;49.036;12.112;2023-02-28T15:09:17;98480.34;;;6.32;45.71
21096;BME280;10706;49.036;12.112;2023-02-28T15:11:48;98477.38;;;6.20;45.98
21096;BME280;10706;49.036;12.112;2023-02-28T15:14:19;98481.84;;;5.98;47.15
21096;BME280;10706;49.036;12.112;2023-02-28T15:17:06;98476.78;;;5.52;47.67